.
WxDataArchive / Data Records for 2016-02-10
2016-02-09 February 2016 2016-02-11

Data Records for Wednesday, 10 February 2016

Time	Temp	Chill	HIndex	Humid	Dewpt	 Wind 	HiWind	WindDir	Rain 	Barom
-----	----	-----	------	-----	-----	------	------	-------	-----	-----
00:00	18.3	18.3	18.3	77	12.3	1	4	292	0.00	29.853 
00:05	18.3	18.3	18.3	77	12.3	2	5	292	0.00	29.853 
00:10	18.3	18.3	18.3	77	12.3	1	3	270	0.00	29.853 
00:15	18.1	18.1	18.1	77	12.1	2	4	248	0.00	29.852 
00:20	18.1	18.1	18.1	77	12.1	2	5	270	0.00	29.852 
00:25	18.1	18.1	18.1	77	12.1	1	4	270	0.00	29.852 
00:30	18.0	18.0	18.0	77	12.0	1	4	270	0.00	29.850 
00:35	18.0	18.0	18.0	77	12.0	2	6	270	0.00	29.850 
00:40	18.0	18.0	18.0	77	12.0	1	4	270	0.00	29.850 
00:45	18.0	18.0	18.0	77	12.0	2	6	270	0.00	29.847 
00:50	18.0	18.0	18.0	77	12.0	1	4	292	0.00	29.847 
00:55	17.8	17.8	17.8	77	11.8	1	4	292	0.00	29.847 
01:00	17.8	17.8	17.8	77	11.8	1	3	248	0.00	29.845 
01:05	17.8	17.8	17.8	77	11.8	1	3	248	0.00	29.845 
01:10	17.7	17.7	17.7	78	12.0	1	4	270	0.00	29.845 
01:15	17.7	17.7	17.7	78	12.0	1	4	270	0.00	29.840 
01:20	17.5	17.5	17.5	78	11.8	1	3	270	0.00	29.840 
01:25	17.5	17.5	17.5	78	11.8	1	3	270	0.00	29.840 
01:30	17.5	17.5	17.5	78	11.8	1	4	270	0.00	29.840 
01:35	17.5	17.5	17.5	79	12.1	1	4	270	0.00	29.840 
01:40	17.5	17.5	17.5	79	12.1	1	4	270	0.00	29.840 
01:45	17.3	17.3	17.3	79	11.9	1	3	270	0.00	29.836 
01:50	17.5	17.5	17.5	79	12.1	1	5	270	0.00	29.836 
01:55	17.5	17.5	17.5	79	12.1	1	4	292	0.00	29.836 
02:00	17.5	17.5	17.5	79	12.1	1	4	292	0.00	29.834 
02:05	17.5	17.5	17.5	79	12.1	2	3	270	0.00	29.834 
02:10	17.5	17.5	17.5	79	12.1	1	4	270	0.00	29.834 
02:15	17.7	17.7	17.7	79	12.3	1	4	270	0.00	29.834 
02:20	17.7	17.7	17.7	79	12.3	1	3	270	0.00	29.834 
02:25	17.7	17.7	17.7	78	12.0	2	3	270	0.00	29.834 
02:30	17.7	17.7	17.7	78	12.0	1	4	270	0.00	29.835 
02:35	17.7	17.7	17.7	79	12.3	1	3	270	0.00	29.835 
02:40	17.7	17.7	17.7	78	12.0	2	5	270	0.00	29.835 
02:45	17.7	17.7	17.7	78	12.0	2	4	292	0.00	29.834 
02:50	17.7	17.7	17.7	79	12.3	1	3	292	0.00	29.834 
02:55	17.7	17.7	17.7	79	12.3	1	3	270	0.00	29.834 
03:00	17.8	17.8	17.8	79	12.4	1	3	270	0.00	29.834 
03:05	17.7	17.7	17.7	79	12.3	1	4	270	0.00	29.834 
03:10	17.8	17.8	17.8	79	12.4	1	3	248	0.00	29.834 
03:15	17.8	17.8	17.8	79	12.4	1	3	248	0.00	29.837 
03:20	17.8	17.8	17.8	79	12.4	1	3	248	0.00	29.837 
03:25	17.8	17.8	17.8	79	12.4	1	4	248	0.00	29.837 
03:30	17.8	17.8	17.8	79	12.4	2	4	270	0.00	29.838 
03:35	17.8	17.8	17.8	79	12.4	1	5	248	0.00	29.838 
03:40	17.8	17.8	17.8	79	12.4	1	3	248	0.00	29.838 
03:45	17.8	17.8	17.8	79	12.4	1	5	248	0.00	29.839 
03:50	17.8	17.8	17.8	79	12.4	1	3	248	0.00	29.839 
03:55	17.8	17.8	17.8	79	12.4	1	3	248	0.00	29.839 
04:00	17.8	17.8	17.8	78	12.1	2	4	270	0.00	29.840 
04:05	17.8	17.8	17.8	78	12.1	1	4	270	0.00	29.840 
04:10	17.8	17.8	17.8	78	12.1	1	3	270	0.00	29.840 
04:15	17.8	17.8	17.8	77	11.8	1	3	270	0.00	29.842 
04:20	17.8	17.8	17.8	77	11.8	1	5	270	0.00	29.842 
04:25	17.8	17.8	17.8	77	11.8	1	4	270	0.00	29.842 
04:30	17.7	17.7	17.7	77	11.7	2	4	292	0.00	29.843 
04:35	17.5	17.5	17.5	78	11.8	2	5	270	0.00	29.843 
04:40	17.5	17.5	17.5	79	12.1	2	4	270	0.00	29.843 
04:45	17.3	17.3	17.3	79	11.9	1	3	270	0.00	29.851 
04:50	17.2	17.2	17.2	80	12.1	1	3	270	0.00	29.851 
04:55	17.2	17.2	17.2	81	12.4	1	5	270	0.00	29.851 
05:00	17.0	17.0	17.0	81	12.2	2	4	270	0.00	29.855 
05:05	17.0	17.0	17.0	81	12.2	1	3	270	0.00	29.855 
05:10	16.9	16.9	16.9	81	12.1	1	4	270	0.00	29.855 
05:15	16.9	16.9	16.9	81	12.1	1	3	270	0.00	29.856 
05:20	16.9	16.9	16.9	82	12.4	1	4	270	0.00	29.856 
05:25	16.7	16.7	16.7	82	12.2	2	4	270	0.00	29.856 
05:30	16.7	16.7	16.7	82	12.2	1	4	270	0.00	29.861 
05:35	16.5	16.5	16.5	82	12.0	1	5	270	0.00	29.861 
05:40	16.5	16.5	16.5	82	12.0	1	3	270	0.00	29.861 
05:45	16.5	16.5	16.5	82	12.0	0	2	270	0.00	29.870 
05:50	16.4	16.4	16.4	82	11.9	1	3	270	0.00	29.870 
05:55	16.4	16.4	16.4	82	11.9	1	2	270	0.00	29.870 
06:00	16.2	16.2	16.2	82	11.7	1	2	270	0.00	29.873 
06:05	16.1	16.1	16.1	82	11.6	1	3	270	0.00	29.873 
06:10	16.1	16.1	16.1	82	11.6	0	3	270	0.00	29.873 
06:15	16.1	16.1	16.1	82	11.6	0	2	270	0.00	29.877 
06:20	16.1	16.1	16.1	82	11.6	0	1	270	0.00	29.877 
06:25	16.2	16.2	16.2	82	11.7	1	3	270	0.00	29.877 
06:30	16.2	16.2	16.2	82	11.7	0	2	270	0.00	29.880 
06:35	16.2	16.2	16.2	82	11.7	0	2	270	0.00	29.880 
06:40	16.2	16.2	16.2	82	11.7	1	4	270	0.00	29.880 
06:45	16.1	16.1	16.1	82	11.6	1	4	270	0.00	29.888 
06:50	15.9	15.9	15.9	82	11.4	0	2	270	0.00	29.888 
06:55	15.9	15.9	15.9	82	11.4	1	3	270	0.00	29.888 
07:00	15.7	15.7	15.7	82	11.2	1	3	248	0.00	29.890 
07:05	15.7	15.7	15.7	82	11.2	0	3	248	0.00	29.890 
07:10	15.7	15.7	15.7	82	11.2	1	3	248	0.00	29.890 
07:15	15.6	15.6	15.6	82	11.1	0	3	248	0.00	29.890 
07:20	15.6	15.6	15.6	82	11.1	0	2	248	0.00	29.890 
07:25	15.6	15.6	15.6	82	11.1	0	3	248	0.00	29.890 
07:30	15.7	15.7	15.7	83	11.5	0	3	248	0.00	29.891 
07:35	15.9	15.9	15.9	83	11.7	0	2	248	0.00	29.891 
07:40	15.9	15.9	15.9	83	11.7	0	2	248	0.00	29.891 
07:45	16.1	16.1	16.1	83	11.9	0	2	248	0.00	29.892 
07:50	16.2	16.2	16.2	84	12.2	0	2	248	0.00	29.892 
07:55	16.2	16.2	16.2	84	12.2	0	2	248	0.00	29.892 
08:00	16.2	16.2	16.2	84	12.2	0	2	248	0.00	29.892 
08:05	16.4	16.4	16.4	84	12.4	0	2	248	0.00	29.892 
08:10	16.5	16.5	16.5	84	12.5	0	1	248	0.00	29.892 
08:15	16.5	16.5	16.5	84	12.5	1	2	248	0.00	29.897 
08:20	16.5	16.5	16.5	84	12.5	1	3	248	0.00	29.897 
08:25	16.7	16.7	16.7	84	12.7	1	3	248	0.00	29.897 
08:30	16.7	16.7	16.7	84	12.7	0	2	248	0.00	29.903 
08:35	16.7	16.7	16.7	84	12.7	1	3	248	0.00	29.903 
08:40	16.9	16.9	16.9	84	12.9	1	3	270	0.00	29.903 
08:45	16.9	16.9	16.9	84	12.9	1	3	270	0.00	29.904 
08:50	16.9	16.9	16.9	83	12.6	1	3	270	0.00	29.904 
08:55	16.9	16.9	16.9	83	12.6	1	3	270	0.00	29.904 
09:00	17.0	17.0	17.0	83	12.7	2	4	270	0.00	29.906 
09:05	17.3	17.3	17.3	83	13.0	1	3	270	0.00	29.906 
09:10	17.5	17.5	17.5	83	13.2	2	4	248	0.00	29.906 
09:15	17.5	17.5	17.5	82	13.0	1	3	270	0.00	29.914 
09:20	17.3	17.3	17.3	82	12.8	1	3	270	0.00	29.914 
09:25	17.3	17.3	17.3	82	12.8	1	3	270	0.00	29.914 
09:30	17.5	17.5	17.5	82	13.0	1	3	270	0.00	29.920 
09:35	17.7	17.7	17.7	82	13.2	1	4	248	0.00	29.920 
09:40	18.0	18.0	18.0	81	13.2	1	3	248	0.00	29.920 
09:45	18.0	18.0	18.0	81	13.2	2	4	248	0.00	29.923 
09:50	18.1	18.1	18.1	80	13.0	2	4	292	0.00	29.923 
09:55	18.3	18.3	18.3	80	13.2	2	4	270	0.00	29.923 
10:00	18.3	18.3	18.3	79	12.9	1	4	270	0.00	29.928 
10:05	18.3	18.3	18.3	79	12.9	1	4	270	0.00	29.928 
10:10	18.3	18.3	18.3	79	12.9	2	5	270	0.00	29.928 
10:15	18.4	18.4	18.4	79	13.0	1	3	270	0.00	29.934 
10:20	18.6	18.6	18.6	79	13.2	1	6	292	0.00	29.934 
10:25	18.8	18.8	18.8	78	13.1	1	3	292	0.00	29.934 
10:30	18.9	18.9	18.9	77	12.9	1	4	270	0.00	29.937 
10:35	19.1	19.1	19.1	77	13.1	2	5	292	0.00	29.937 
10:40	19.1	19.1	19.1	76	12.8	2	6	248	0.00	29.937 
10:45	19.2	19.2	19.2	76	12.9	2	4	248	0.00	29.940 
10:50	19.4	19.4	19.4	75	12.8	2	4	270	0.00	29.940 
10:55	19.5	19.5	19.5	75	12.9	2	5	270	0.00	29.940 
11:00	19.7	19.7	19.7	74	12.8	2	4	292	0.00	29.942 
11:05	19.9	19.9	19.9	75	13.3	2	4	292	0.00	29.942 
11:10	20.0	20.0	20.0	73	12.8	3	5	270	0.00	29.942 
11:15	19.7	19.7	19.7	73	12.5	3	5	270	0.00	29.949 
11:20	19.9	19.9	19.9	73	12.7	1	4	315	0.00	29.949 
11:25	20.0	20.0	20.0	74	13.1	1	4	270	0.00	29.949 
11:30	20.2	20.2	20.2	73	13.0	2	4	292	0.00	29.952 
11:35	20.2	20.2	20.2	73	13.0	2	5	270	0.00	29.952 
11:40	20.3	20.3	20.3	72	12.7	2	7	270	0.00	29.952 
11:45	20.2	20.2	20.2	71	12.3	2	5	270	0.00	29.953 
11:50	20.2	20.2	20.2	71	12.3	3	6	270	0.00	29.953 
11:55	20.0	20.0	20.0	71	12.1	2	5	248	0.00	29.953 
12:00	20.0	20.0	20.0	71	12.1	3	5	248	0.00	29.953 
12:05	20.0	20.0	20.0	71	12.1	2	7	270	0.00	29.953 
12:10	20.3	20.3	20.3	71	12.4	2	4	270	0.00	29.953 
12:15	20.2	20.2	20.2	70	12.0	3	5	270	0.00	29.952 
12:20	20.3	20.3	20.3	70	12.1	1	4	270	0.00	29.952 
12:25	21.0	21.0	21.0	70	12.8	2	5	270	0.00	29.952 
12:30	21.3	21.3	21.3	69	12.7	2	4	248	0.00	29.949 
12:35	21.3	21.3	21.3	68	12.4	2	5	292	0.00	29.949 
12:40	21.0	21.0	21.0	66	11.5	2	5	270	0.00	29.949 
12:45	20.5	20.5	20.5	66	11.0	3	10	270	0.00	29.946 
12:50	20.2	20.2	20.2	65	10.3	3	5	270	0.00	29.946 
12:55	21.0	21.0	21.0	67	11.8	2	4	292	0.00	29.946 
13:00	21.3	21.3	21.3	65	11.4	3	6	270	0.00	29.941 
13:05	21.4	21.4	21.4	65	11.5	2	5	270	0.00	29.941 
13:10	21.4	21.4	21.4	63	10.8	2	6	270	0.00	29.941 
13:15	21.8	21.8	21.8	63	11.2	2	5	292	0.00	29.937 
13:20	22.2	22.2	22.2	63	11.6	2	5	292	0.00	29.937 
13:25	22.4	22.4	22.4	62	11.4	2	5	270	0.00	29.937 
13:30	22.4	22.4	22.4	61	11.0	2	5	270	0.00	29.936 
13:35	22.2	22.2	22.2	61	10.8	3	6	270	0.00	29.936 
13:40	22.2	22.2	22.2	62	11.2	2	5	270	0.00	29.936 
13:45	21.9	21.9	21.9	61	10.5	2	5	270	0.00	29.936 
13:50	22.1	22.1	22.1	61	10.7	1	4	270	0.00	29.936 
13:55	21.9	21.9	21.9	61	10.5	1	5	292	0.00	29.936 
14:00	22.2	22.2	22.2	62	11.2	2	5	248	0.00	29.932 
14:05	21.9	21.9	21.9	62	10.9	2	6	270	0.00	29.932 
14:10	21.8	21.8	21.8	61	10.4	2	5	292	0.00	29.932 
14:15	21.3	21.3	21.3	61	10.0	2	7	270	0.00	29.935 
14:20	21.1	21.1	21.1	62	10.1	2	6	248	0.00	29.935 
14:25	21.3	21.3	21.3	63	10.7	1	4	270	0.00	29.935 
14:30	21.1	21.1	21.1	62	10.1	2	7	248	0.00	29.936 
14:35	21.0	21.0	21.0	63	10.4	1	5	248	0.00	29.936 
14:40	21.0	21.0	21.0	63	10.4	1	5	248	0.00	29.936 
14:45	21.0	21.0	21.0	63	10.4	2	5	270	0.00	29.938 
14:50	21.1	21.1	21.1	61	9.8	2	7	248	0.00	29.938 
14:55	21.6	21.6	21.6	61	10.3	3	5	270	0.00	29.938 
15:00	22.1	22.1	22.1	61	10.7	2	4	270	0.00	29.937 
15:05	22.1	22.1	22.1	58	9.6	2	5	248	0.00	29.937 
15:10	21.9	21.9	21.9	59	9.8	1	5	270	0.00	29.937 
15:15	21.4	21.4	21.4	61	10.1	2	6	270	0.00	29.939 
15:20	21.1	21.1	21.1	61	9.8	2	4	270	0.00	29.939 
15:25	21.0	21.0	21.0	62	10.1	2	5	270	0.00	29.939 
15:30	20.8	20.8	20.8	62	9.9	3	5	292	0.00	29.951 
15:35	20.6	20.6	20.6	65	10.7	2	4	292	0.00	29.951 
15:40	20.6	20.6	20.6	65	10.7	1	5	248	0.00	29.951 
15:45	20.5	20.5	20.5	66	11.0	2	5	292	0.00	29.952 
15:50	20.3	20.3	20.3	66	10.8	2	4	270	0.00	29.952 
15:55	20.2	20.2	20.2	67	11.0	2	5	248	0.00	29.952 
16:00	20.2	20.2	20.2	67	11.0	1	4	270	0.00	29.957 
16:05	20.2	20.2	20.2	62	9.3	3	6	270	0.00	29.957 
16:10	20.2	20.2	20.2	60	8.6	3	6	270	0.00	29.957 
16:15	20.2	20.2	20.2	60	8.6	2	4	292	0.00	29.968 
16:20	20.2	20.2	20.2	59	8.2	2	6	292	0.00	29.968 
16:25	20.0	20.0	20.0	58	7.6	3	9	270	0.00	29.968 
16:30	20.0	20.0	20.0	59	8.0	3	5	270	0.00	29.971 
16:35	19.9	19.9	19.9	58	7.5	3	6	270	0.00	29.971 
16:40	19.7	19.7	19.7	59	7.7	3	5	270	0.00	29.971 
16:45	19.7	19.7	19.7	59	7.7	3	11	270	0.00	29.982 
16:50	19.5	19.5	19.5	59	7.5	3	6	315	0.00	29.982 
16:55	19.4	19.4	19.4	59	7.4	3	7	292	0.00	29.982 
17:00	19.2	13.3	19.2	58	6.9	4	7	270	0.00	29.988 
17:05	19.1	19.1	19.1	59	7.2	3	7	270	0.00	29.988 
17:10	19.1	19.1	19.1	60	7.5	2	4	292	0.00	29.988 
17:15	19.1	19.1	19.1	61	7.9	1	5	292	0.00	29.997 
17:20	19.1	19.1	19.1	61	7.9	2	5	270	0.00	29.997 
17:25	18.9	18.9	18.9	61	7.7	3	6	270	0.00	29.997 
17:30	18.8	18.8	18.8	61	7.6	2	9	270	0.00	30.004 
17:35	18.8	18.8	18.8	61	7.6	2	5	270	0.00	30.004 
17:40	18.8	18.8	18.8	62	8.0	2	4	292	0.00	30.004 
17:45	18.6	18.6	18.6	62	7.8	2	6	270	0.00	30.013 
17:50	18.4	18.4	18.4	62	7.6	2	5	270	0.00	30.013 
17:55	18.3	18.3	18.3	63	7.8	3	5	270	0.00	30.013 
18:00	18.1	18.1	18.1	63	7.7	3	5	270	0.00	30.019 
18:05	18.0	18.0	18.0	62	7.2	3	5	270	0.00	30.019 
18:10	17.8	17.8	17.8	63	7.4	3	5	270	0.00	30.019 
18:15	17.7	17.7	17.7	63	7.3	2	4	270	0.00	30.024 
18:20	17.7	17.7	17.7	63	7.3	3	5	270	0.00	30.024 
18:25	17.5	17.5	17.5	63	7.1	3	7	270	0.00	30.024 
18:30	17.3	17.3	17.3	64	7.2	2	5	270	0.00	30.037 
18:35	17.3	17.3	17.3	64	7.2	2	6	270	0.00	30.037 
18:40	17.2	17.2	17.2	63	6.8	3	5	270	0.00	30.037 
18:45	17.2	17.2	17.2	63	6.8	3	6	270	0.00	30.043 
18:50	17.2	17.2	17.2	63	6.8	2	5	270	0.00	30.043 
18:55	17.0	17.0	17.0	63	6.6	1	4	270	0.00	30.043 
19:00	17.0	17.0	17.0	62	6.3	3	5	292	0.00	30.054 
19:05	16.9	16.9	16.9	62	6.2	2	6	270	0.00	30.054 
19:10	16.9	16.9	16.9	61	5.8	3	6	292	0.00	30.054 
19:15	16.7	16.7	16.7	61	5.6	3	5	270	0.00	30.060 
19:20	16.7	16.7	16.7	60	5.3	3	6	270	0.00	30.060 
19:25	16.7	16.7	16.7	59	4.9	2	6	270	0.00	30.060 
19:30	16.7	16.7	16.7	60	5.3	2	4	270	0.00	30.068 
19:35	16.5	16.5	16.5	59	4.7	3	5	270	0.00	30.068 
19:40	16.5	16.5	16.5	59	4.7	3	5	270	0.00	30.068 
19:45	16.5	16.5	16.5	59	4.7	1	4	248	0.00	30.068 
19:50	16.5	16.5	16.5	58	4.3	2	5	270	0.00	30.068 
19:55	16.5	16.5	16.5	58	4.3	2	5	270	0.00	30.068 
20:00	16.5	16.5	16.5	57	4.0	2	7	292	0.00	30.070 
20:05	16.4	16.4	16.4	56	3.5	3	5	270	0.00	30.070 
20:10	16.4	16.4	16.4	55	3.1	2	5	270	0.00	30.070 
20:15	16.4	16.4	16.4	55	3.1	2	5	292	0.00	30.076 
20:20	16.4	16.4	16.4	55	3.1	2	4	270	0.00	30.076 
20:25	16.2	16.2	16.2	55	2.9	2	5	292	0.00	30.076 
20:30	16.2	16.2	16.2	55	2.9	2	4	270	0.00	30.080 
20:35	16.2	16.2	16.2	55	2.9	1	4	270	0.00	30.080 
20:40	16.1	16.1	16.1	54	2.4	2	4	270	0.00	30.080 
20:45	16.1	16.1	16.1	54	2.4	2	4	270	0.00	30.085 
20:50	15.9	15.9	15.9	54	2.2	2	5	270	0.00	30.085 
20:55	15.9	15.9	15.9	55	2.6	0	2	292	0.00	30.085 
21:00	15.9	15.9	15.9	55	2.6	1	4	270	0.00	30.089 
21:05	15.9	15.9	15.9	55	2.6	1	4	315	0.00	30.089 
21:10	15.9	15.9	15.9	55	2.6	2	5	292	0.00	30.089 
21:15	15.9	15.9	15.9	56	3.0	1	2	292	0.00	30.091 
21:20	15.9	15.9	15.9	56	3.0	1	3	292	0.00	30.091 
21:25	15.9	15.9	15.9	57	3.4	1	4	270	0.00	30.091 
21:30	15.9	15.9	15.9	58	3.8	1	3	270	0.00	30.098 
21:35	15.7	15.7	15.7	58	3.6	1	3	270	0.00	30.098 
21:40	15.7	15.7	15.7	60	4.3	1	5	248	0.00	30.098 
21:45	15.7	15.7	15.7	62	5.0	1	4	270	0.00	30.100 
21:50	15.6	15.6	15.6	63	5.3	1	2	292	0.00	30.100 
21:55	15.6	15.6	15.6	65	6.0	0	2	270	0.00	30.100 
22:00	15.6	15.6	15.6	66	6.3	1	3	270	0.00	30.102 
22:05	15.4	15.4	15.4	66	6.1	1	3	270	0.00	30.102 
22:10	15.4	15.4	15.4	66	6.1	0	2	270	0.00	30.102 
22:15	15.4	15.4	15.4	66	6.1	1	3	270	0.00	30.101 
22:20	15.2	15.2	15.2	66	5.9	2	4	292	0.00	30.101 
22:25	15.1	15.1	15.1	66	5.8	1	3	292	0.00	30.101 
22:30	15.1	15.1	15.1	66	5.8	1	4	270	0.00	30.103 
22:35	14.9	14.9	14.9	66	5.6	1	3	270	0.00	30.103 
22:40	14.8	14.8	14.8	66	5.5	1	3	270	0.00	30.103 
22:45	14.6	14.6	14.6	65	5.0	0	3	270	0.00	30.107 
22:50	14.6	14.6	14.6	65	5.0	1	3	270	0.00	30.107 
22:55	14.4	14.4	14.4	66	5.1	1	3	270	0.00	30.107 
23:00	14.3	14.3	14.3	66	5.1	1	3	270	0.00	30.113 
23:05	14.3	14.3	14.3	66	5.1	0	3	292	0.00	30.113 
23:10	14.1	14.1	14.1	66	4.9	0	3	292	0.00	30.113 
23:15	14.0	14.0	14.0	67	5.1	1	3	292	0.00	30.116 
23:20	14.0	14.0	14.0	67	5.1	0	2	292	0.00	30.116 
23:25	13.8	13.8	13.8	68	5.2	1	3	292	0.00	30.116 
23:30	13.8	13.8	13.8	68	5.2	0	2	270	0.00	30.123 
23:35	13.8	13.8	13.8	68	5.2	1	4	270	0.00	30.123 
23:40	13.8	13.8	13.8	69	5.5	1	3	270	0.00	30.123 
23:45	13.8	13.8	13.8	69	5.5	0	2	270	0.00	30.127 
23:50	14.0	14.0	14.0	69	5.7	0	2	270	0.00	30.127 
23:55	14.0	14.0	14.0	69	5.7	1	3	270	0.00	30.127 

CoCoRaHS
IN-AL-39
A2 Web Hosting
Creative Commons License
GoDaddy
search engine by freefind advanced

loaded 2018-11-17 14:08:34 • last modified 2010-11-18 10:43:29
Privacy PolicyDisclaimer
• wx.awcolley.com is powered by PmWiki v.2002016 •
• all content (unless otherwise noted) © 2018 A W Colley